2021 Hybrid Gresham Lilac Run Logo

2021 Gresham Lilac Run 5K
Main City Park, Anywhere, US
May 8th, 2021
City of Gresham

Email timing@hubertiming.com with results questions. Please include your bib number if you have it.
virtual result with verification

Huber Timing Home

5K In-Person H1:
Finishers: 54
Male: 9
Female: 45
10K In Person Half In Person 5K Virtual 10K Virtual 13.1 Virtual 5K In Person H2 5K In Person H3 Summary Live Feed Gallery
Search: Division:
Place Bib Name Gender Age City State Chip Time Chip Pace Gender Place Age Group Age Group Place Time to Start Gun Time
1 195 ERICA HUNSBERGER F 34 GRESHAM OR 20:45 6:41 1 of 45 F 30-34 1 of 9 0:02 20:47
2 272 ALYSSA ROUPP F 41 GRESHAM OR 22:10 7:08 2 of 45 F 40-44 1 of 3 0:04 22:14
3 191 BETHANY HOLLISTER F 52 PORTLAND OR 23:19 7:31 3 of 45 F 50-54 1 of 6 0:02 23:21
4 260 BRIEANNA PHILLIPS F 30 PORTLAND OR 23:56 7:43 4 of 45 F 30-34 2 of 9 0:09 24:05
5 133 NICOLAS CASTANEDA M 30 PORTLAND OR 24:39 7:56 1 of 9 M 30-34 1 of 3 0:08 24:47
6 218 JESSICA LANGFORD F 37 GRESHAM OR 24:42 7:57 5 of 45 F 35-39 1 of 2 0:04 24:46
7 138 MEGAN CORTES F 32 SANDY OR 26:51 8:39 6 of 45 F 30-34 3 of 9 0:06 26:57
8 268 MYKLE ROJAS M 32 GRESHAM OR 26:51 8:39 2 of 9 M 30-34 2 of 3 0:06 26:57
9 241 JESSICA MORDEN F 29 ESTACADA OR 27:07 8:44 7 of 45 F 25-29 1 of 3 0:11 27:18
10 279 PETER SCHAFFER M 33 PORTLAND OR 28:50 9:17 3 of 9 M 30-34 3 of 3 0:21 29:11
11 280 VALERIE SCHILLER F 30 GRESHAM OR 29:25 9:29 8 of 45 F 30-34 4 of 9 0:03 29:28
12 291 JULIE ANN SMITH F 53 OREGON CITY OR 29:40 9:34 9 of 45 F 50-54 2 of 6 0:03 29:43
13 211 BEV KLASON F 75 PORTLAND OR 29:49 9:37 10 of 45 F 75-79 1 of 2 0:06 29:55
14 329 ASHLEY TURNER F 37 TROUTDALE OR 30:31 9:50 11 of 45 F 35-39 2 of 2 0:08 30:39
15 139 JOSEPH COTTON M 39 PORTLAND OR 31:57 10:18 4 of 9 M 35-39 1 of 1 0:12 32:09
16 193 LORI HORTON F 56 PORTLAND OR 35:27 11:25 12 of 45 F 55-59 1 of 5 0:16 35:43
17 263 KAREN PYLE F 62 GRESHAM OR 36:34 11:47 13 of 45 F 60-64 1 of 5 0:12 36:46
18 224 PACIA LINDE F 30 GRESHAM OR 36:34 11:47 14 of 45 F 30-34 5 of 9 0:12 36:46
19 196 CARRI HUTCHENS F 32 PORTLAND OR 36:44 11:50 15 of 45 F 30-34 6 of 9 0:21 37:05
20 300 JIM TURNER M 56 PORTLAND OR 36:47 11:51 5 of 9 M 55-59 1 of 2 0:11 36:58
21 231 MATTIE MCBANE F 28 MCMINNVILLE OR 37:16 12:01 16 of 45 F 25-29 2 of 3 0:12 37:28
22 192 KIMBERLY HORNER F 52 WASHOUGAL WA 38:38 12:27 17 of 45 F 50-54 3 of 6 0:06 38:44
23 259 ALISHA PHILLIPS F 31 GRESHAM OR 39:24 12:42 18 of 45 F 30-34 7 of 9 0:28 39:52
24 165 SUE GODFREY F 59 GRESHAM OR 40:06 12:55 19 of 45 F 55-59 2 of 5 0:32 40:38
25 250 BARBARA PEACHEY F 55 GRESHAM OR 42:43 13:46 20 of 45 F 55-59 3 of 5 0:21 43:04
26 251 BRIAN PEACHEY M 56 GRESHAM OR 46:51 15:06 6 of 9 M 55-59 2 of 2 0:30 47:21
27 248 RIVKA ONEAL F 40 VANCOUVER WA 48:58 15:47 21 of 45 F 40-44 2 of 3 0:26 49:24
28 106 SANDRA BACHELDER F 61 GRESHAM OR 49:43 16:02 22 of 45 F 60-64 2 of 5 0:28 50:11
29 179 JESSICA HAYDEN F 25 PORTLAND OR 50:20 16:14 23 of 45 F 25-29 3 of 3 0:51 51:11
30 319 LORI WILLIAMS F 53 PORTLAND OR 50:20 16:14 24 of 45 F 50-54 4 of 6 0:49 51:09
31 156 SUSAN FRASER F 70 PORTLAND OR 51:46 16:41 25 of 45 F 70-74 1 of 4 0:33 52:19
32 167 MELISSA GRIMM F 34 PORTLAND OR 53:20 17:12 26 of 45 F 30-34 8 of 9 0:30 53:50
33 177 THERESA HARRISON F 50 BEAVERTON OR 53:22 17:12 27 of 45 F 50-54 5 of 6 0:29 53:51
34 123 THERESA BRILL F 56 GRESHAM OR 54:06 17:26 28 of 45 F 55-59 4 of 5 0:53 54:59
35 305 RONDA WAGNER F 54 GRESHAM OR 54:07 17:27 29 of 45 F 50-54 6 of 6 0:53 55:00
36 129 STELLA BROWN F 74 MILWAUKIE OR 54:14 17:29 30 of 45 F 70-74 2 of 4 0:28 54:42
37 245 ROXIE NULL F 57 PORTLAND OR 54:29 17:34 31 of 45 F 55-59 5 of 5 0:27 54:56
38 321 BRETT WOODEN M 41 58:56 19:00 7 of 9 M 40-44 1 of 1 0:00 58:56
39 322 CADENCE WOODEN F 14 58:59 19:01 32 of 45 F 10-14 1 of 2 0:00 58:59
40 324 GRACE WOODEN F 11 59:06 19:03 33 of 45 F 10-14 2 of 2 0:00 59:06
41 323 CORLINDA WOODEN F 40 59:06 19:03 34 of 45 F 40-44 3 of 3 0:00 59:06
42 127 MADISON BROWN F 24 GRESHAM OR 1:02:56 20:17 35 of 45 F 20-24 1 of 1 6:16 1:09:12
43 328 DIENDRE MARKS M 27 GRESHAM OR 1:02:58 20:18 8 of 9 M 25-29 1 of 1 6:16 1:09:14
44 128 MIKE BROWN M 63 GRESHAM OR 1:02:58 20:18 9 of 9 M 60-64 1 of 1 6:17 1:09:15
45 295 DEBBIE STOFFER F 66 GRESHAM OR 1:05:28 21:06 36 of 45 F 65-69 1 of 1 0:38 1:06:06
46 286 ELIZABETH SHEELEY F 62 GRESHAM OR 1:05:29 21:07 37 of 45 F 60-64 3 of 5 0:37 1:06:06
47 287 PAM SIFRI F 76 GRESHAM OR 1:10:46 22:49 38 of 45 F 75-79 2 of 2 0:53 1:11:39
48 134 THERESA CHINN F 63 GRESHAM OR 1:10:47 22:49 39 of 45 F 60-64 4 of 5 0:52 1:11:39
49 325 ROBERTA WORSTELL F 71 GRESHAM OR 1:10:49 22:50 40 of 45 F 70-74 3 of 4 0:50 1:11:39
50 208 LILLIAM KHAN F 60 SHERWOOD OR 1:15:09 24:14 41 of 45 F 60-64 5 of 5 0:49 1:15:58
51 124 LISA BRINGEL F 48 LAFAYETTE OR 1:15:14 24:15 42 of 45 F 45-49 1 of 2 0:45 1:15:59
52 171 REGAN HAGEMEISTER F 45 GRESHAM OR 1:16:23 24:38 43 of 45 F 45-49 2 of 2 3:29 1:19:52
53 253 ANDREA PENNICK F 33 GRESHAM OR 1:16:23 24:38 44 of 45 F 30-34 9 of 9 3:30 1:19:53
54 254 LOIS PENNICK F 73 GRESHAM OR 1:16:23 24:38 45 of 45 F 70-74 4 of 4 3:30 1:19:54
Huber Timing
Dark Mode